createdAt,value
2023-11-16T00:00:49.731Z,6.57
2023-11-16T00:03:38.889Z,6.60
2023-11-16T00:06:09.078Z,6.62
2023-11-16T00:08:37.659Z,6.66
2023-11-16T00:11:07.424Z,6.71
2023-11-16T00:13:36.119Z,6.72
2023-11-16T00:16:06.244Z,6.72
2023-11-16T00:18:36.081Z,6.71
2023-11-16T00:21:04.902Z,6.72
2023-11-16T00:23:33.076Z,6.73
2023-11-16T00:26:01.343Z,6.73
2023-11-16T00:28:30.045Z,6.71
2023-11-16T00:30:58.482Z,6.66
2023-11-16T00:33:27.344Z,6.63
2023-11-16T00:35:56.648Z,6.57
2023-11-16T00:38:44.806Z,6.53
2023-11-16T00:41:16.605Z,6.50
2023-11-16T00:43:45.627Z,6.46
2023-11-16T00:46:13.959Z,6.44
2023-11-16T00:48:43.955Z,6.41
2023-11-16T00:51:15.409Z,6.39
2023-11-16T00:53:46.474Z,6.36
2023-11-16T00:56:15.464Z,6.32
2023-11-16T00:58:46.201Z,6.30
2023-11-16T01:01:14.684Z,6.28
2023-11-16T01:03:43.798Z,6.26
2023-11-16T01:06:12.667Z,6.24
2023-11-16T01:08:40.941Z,6.21
2023-11-16T01:11:09.936Z,6.20
2023-11-16T01:13:42.501Z,6.21
2023-11-16T01:16:16.103Z,6.20
2023-11-16T01:18:51.784Z,6.16
2023-11-16T01:21:21.298Z,6.13
2023-11-16T01:23:52.464Z,6.11
2023-11-16T01:26:22.536Z,6.12
2023-11-16T01:29:02.474Z,6.14
2023-11-16T01:31:30.904Z,6.17
2023-11-16T01:33:59.245Z,6.22
2023-11-16T01:36:28.242Z,6.28
2023-11-16T01:38:58.935Z,6.32
2023-11-16T01:41:27.919Z,6.37
2023-11-16T01:43:57.547Z,6.42
2023-11-16T01:46:27.900Z,6.45
2023-11-16T01:48:57.959Z,6.47
2023-11-16T01:51:29.207Z,6.49
2023-11-16T01:54:04.220Z,6.48
2023-11-16T01:56:36.958Z,6.50
2023-11-16T01:59:07.495Z,6.50
2023-11-16T02:01:36.697Z,6.50
2023-11-16T02:04:09.429Z,6.51
2023-11-16T02:06:42.154Z,6.53
2023-11-16T02:09:11.434Z,6.54
2023-11-16T02:11:41.465Z,6.56
2023-11-16T02:14:12.233Z,6.56
2023-11-16T02:16:41.473Z,6.55
2023-11-16T02:19:22.538Z,6.57
2023-11-16T02:21:54.109Z,6.55
2023-11-16T02:24:22.565Z,6.57
2023-11-16T02:27:10.718Z,6.59
2023-11-16T02:29:38.703Z,6.62
2023-11-16T02:32:07.372Z,6.63
2023-11-16T02:34:35.446Z,6.67
2023-11-16T02:37:04.292Z,6.67
2023-11-16T02:39:33.074Z,6.65
2023-11-16T02:42:01.575Z,6.61
2023-11-16T02:50:57.583Z,6.60
2023-11-16T02:53:25.829Z,6.57
2023-11-16T02:55:53.968Z,6.56
2023-11-16T02:58:23.450Z,6.55
2023-11-16T03:00:52.177Z,6.54
2023-11-16T03:03:20.806Z,6.51
2023-11-16T03:05:48.935Z,6.48
2023-11-16T03:08:19.128Z,6.45
2023-11-16T03:10:48.946Z,6.41
2023-11-16T03:13:18.310Z,6.38
2023-11-16T03:15:46.610Z,6.36
2023-11-16T03:18:16.160Z,6.32
2023-11-16T03:20:45.377Z,6.29
2023-11-16T03:23:15.089Z,6.25
2023-11-16T03:25:44.347Z,6.20
2023-11-16T03:28:13.732Z,6.18
2023-11-16T03:30:42.057Z,6.18
2023-11-16T03:33:13.024Z,6.18
2023-11-16T03:35:41.374Z,6.18
2023-11-16T03:38:09.471Z,6.19
2023-11-16T03:40:37.481Z,6.18
2023-11-16T03:43:05.780Z,6.16
2023-11-16T03:45:35.706Z,6.17
2023-11-16T03:48:06.421Z,6.17
2023-11-16T03:50:35.293Z,6.18
2023-11-16T03:53:03.483Z,6.20
2023-11-16T03:55:31.649Z,6.20
2023-11-16T03:57:59.829Z,6.19
2023-11-16T04:00:28.121Z,6.20
2023-11-16T04:02:59.440Z,6.20
2023-11-16T04:05:28.805Z,6.20
2023-11-16T04:07:57.887Z,6.19
2023-11-16T04:10:26.216Z,6.22
2023-11-16T04:12:54.338Z,6.22
2023-11-16T04:15:23.788Z,6.18
2023-11-16T04:17:52.234Z,6.15
2023-11-16T04:20:20.781Z,6.14
2023-11-16T04:22:49.896Z,6.14
2023-11-16T04:25:24.480Z,6.16
2023-11-16T04:27:56.148Z,6.21
2023-11-16T04:30:24.768Z,6.24
2023-11-16T04:32:52.954Z,6.28
2023-11-16T04:35:22.391Z,6.30
2023-11-16T04:37:51.511Z,6.32
2023-11-16T04:40:21.035Z,6.32
2023-11-16T04:42:49.981Z,6.36
2023-11-16T04:45:20.210Z,6.36
2023-11-16T04:47:48.785Z,6.35
2023-11-16T04:50:18.983Z,6.34
2023-11-16T04:52:48.263Z,6.36
2023-11-16T04:55:17.273Z,6.41
2023-11-16T04:57:47.101Z,6.48
2023-11-16T05:00:16.962Z,6.51
2023-11-16T05:02:45.107Z,6.52
2023-11-16T05:05:13.256Z,6.54
2023-11-16T05:07:41.289Z,6.57
2023-11-16T05:10:12.140Z,6.57
2023-11-16T05:12:41.835Z,6.55
2023-11-16T05:15:12.320Z,6.49
2023-11-16T05:17:41.347Z,6.41
2023-11-16T05:20:34.408Z,6.30
2023-11-16T05:23:13.937Z,6.18
2023-11-16T05:25:51.560Z,6.12
2023-11-16T05:28:34.733Z,6.07
2023-11-16T05:31:06.960Z,6.02
2023-11-16T05:33:35.180Z,5.97
2023-11-16T05:36:03.718Z,5.93
2023-11-16T05:38:33.094Z,5.89
2023-11-16T05:41:01.264Z,5.85
2023-11-16T05:43:29.384Z,5.81
2023-11-16T05:45:58.564Z,5.79
2023-11-16T05:48:26.698Z,5.78
2023-11-16T05:50:54.797Z,5.79
2023-11-16T05:53:22.718Z,5.80
2023-11-16T05:55:50.698Z,5.77
2023-11-16T05:58:18.616Z,5.75
2023-11-16T06:00:46.620Z,5.76
2023-11-16T06:03:14.612Z,5.78
2023-11-16T06:05:43.179Z,5.81
2023-11-16T06:08:11.898Z,5.81
2023-11-16T06:10:40.535Z,5.83
2023-11-16T06:13:08.432Z,5.85
2023-11-16T06:15:37.201Z,5.88
2023-11-16T06:18:05.467Z,5.87
2023-11-16T06:20:34.747Z,5.88
2023-11-16T06:23:03.915Z,5.86
2023-11-16T06:25:31.929Z,5.83
2023-11-16T06:27:59.981Z,5.81
2023-11-16T06:30:28.162Z,5.78
2023-11-16T06:32:56.084Z,5.71
2023-11-16T06:35:24.124Z,5.62
2023-11-16T06:37:52.068Z,5.56
2023-11-16T06:40:20.363Z,5.52
2023-11-16T06:42:48.452Z,5.48
2023-11-16T06:45:18.098Z,5.46
2023-11-16T06:47:49.366Z,5.52
2023-11-16T06:50:17.778Z,5.55
2023-11-16T06:52:45.786Z,5.57
2023-11-16T06:55:15.084Z,5.56
2023-11-16T06:57:43.216Z,5.57
2023-11-16T07:00:16.725Z,5.60
2023-11-16T07:02:46.895Z,5.62
2023-11-16T07:05:15.601Z,5.62
2023-11-16T07:07:46.833Z,5.63
2023-11-16T07:10:17.123Z,5.64
2023-11-16T07:12:47.199Z,5.65
2023-11-16T07:15:16.327Z,5.63
2023-11-16T07:17:44.598Z,5.61
2023-11-16T07:20:13.288Z,5.63
2023-11-16T07:22:42.030Z,5.67
2023-11-16T07:25:11.152Z,5.66
2023-11-16T07:27:39.826Z,5.67
2023-11-16T07:30:08.937Z,5.69
2023-11-16T07:32:37.116Z,5.70
2023-11-16T07:35:15.998Z,5.66
2023-11-16T07:37:46.271Z,5.61
2023-11-16T07:40:16.904Z,5.54
2023-11-16T07:42:48.132Z,5.49
2023-11-16T07:45:16.804Z,5.46
2023-11-16T07:47:48.641Z,5.43
2023-11-16T07:50:16.898Z,5.40
2023-11-16T07:52:45.182Z,5.37
2023-11-16T07:55:19.962Z,5.35
2023-11-16T07:57:54.014Z,5.35
2023-11-16T08:00:28.244Z,5.33
2023-11-16T08:03:15.150Z,5.32
2023-11-16T08:05:45.125Z,5.31
2023-11-16T08:08:15.320Z,5.30
2023-11-16T08:10:44.631Z,5.28
2023-11-16T08:13:13.786Z,5.31
2023-11-16T08:15:42.511Z,5.35
2023-11-16T08:18:15.928Z,5.41
2023-11-16T08:20:44.186Z,5.50
2023-11-16T08:23:12.148Z,5.59
2023-11-16T08:25:40.913Z,5.71
2023-11-16T08:28:13.814Z,5.80
2023-11-16T08:30:44.153Z,5.87
2023-11-16T08:33:13.178Z,5.93
2023-11-16T08:35:41.419Z,5.98
2023-11-16T08:38:18.001Z,6.02
2023-11-16T08:40:47.190Z,6.03
2023-11-16T08:43:17.158Z,6.05
2023-11-16T08:45:46.883Z,6.07
2023-11-16T08:48:18.091Z,6.10
2023-11-16T08:50:51.941Z,6.15
2023-11-16T08:53:22.920Z,6.21
2023-11-16T08:55:50.944Z,6.28
2023-11-16T08:58:19.763Z,6.35
2023-11-16T09:00:49.339Z,6.40
2023-11-16T09:03:20.383Z,6.47
2023-11-16T09:08:20.663Z,6.56
2023-11-16T09:10:50.453Z,6.64
2023-11-16T09:13:19.815Z,6.71
2023-11-16T09:15:47.957Z,6.78
2023-11-16T09:18:17.298Z,6.85
2023-11-16T09:20:50.223Z,6.96
2023-11-16T09:23:18.960Z,7.06
2023-11-16T09:25:48.221Z,7.18
2023-11-16T09:28:16.362Z,7.28
2023-11-16T09:30:45.029Z,7.34
2023-11-16T09:33:14.494Z,7.39
2023-11-16T09:35:43.288Z,7.45
2023-11-16T09:38:11.491Z,7.58
2023-11-16T09:40:40.211Z,7.70
2023-11-16T09:43:18.432Z,7.72
2023-11-16T09:45:51.238Z,7.68
2023-11-16T09:48:24.124Z,7.59
2023-11-16T09:50:55.402Z,7.51
2023-11-16T09:53:28.479Z,7.47
2023-11-16T09:55:57.613Z,7.49
2023-11-16T09:58:27.273Z,7.57
2023-11-16T10:00:59.138Z,7.65
2023-11-16T10:03:38.058Z,7.75
2023-11-16T10:06:08.506Z,7.90
2023-11-16T10:08:40.527Z,8.04
2023-11-16T10:11:08.944Z,8.19
2023-11-16T10:13:38.538Z,8.31
2023-11-16T10:16:11.669Z,8.39
2023-11-16T10:18:39.947Z,8.49
2023-11-16T10:21:10.045Z,8.59
2023-11-16T10:23:47.068Z,8.65
2023-11-16T10:26:15.096Z,8.59
2023-11-16T10:28:43.001Z,8.57
2023-11-16T10:31:12.979Z,8.50
2023-11-16T10:33:41.256Z,8.44
2023-11-16T10:36:11.362Z,8.39
2023-11-16T10:38:39.379Z,8.34
2023-11-16T10:41:07.404Z,8.30
2023-11-16T10:43:37.291Z,8.29
2023-11-16T10:46:06.476Z,8.39
2023-11-16T10:48:35.102Z,8.51
2023-11-16T10:51:06.637Z,8.69
2023-11-16T10:53:39.618Z,8.89
2023-11-16T10:56:11.022Z,9.06
2023-11-16T10:58:42.366Z,9.21
2023-11-16T11:01:18.809Z,9.33
2023-11-16T11:03:49.801Z,9.47
2023-11-16T11:06:24.459Z,9.60
2023-11-16T11:08:56.195Z,9.66
2023-11-16T11:11:28.348Z,9.73
2023-11-16T11:14:00.435Z,9.77
2023-11-16T11:16:29.663Z,9.84
2023-11-16T11:19:00.035Z,9.95
2023-11-16T11:21:28.796Z,10.05
2023-11-16T11:24:06.506Z,10.11
2023-11-16T11:26:45.146Z,10.16
2023-11-16T11:29:14.127Z,10.20
2023-11-16T11:31:56.389Z,10.19
2023-11-16T11:34:31.334Z,10.16
2023-11-16T11:37:01.483Z,10.09
2023-11-16T11:39:40.553Z,10.12
2023-11-16T11:42:10.656Z,10.18
2023-11-16T11:44:41.017Z,10.19
2023-11-16T11:47:09.867Z,10.27
2023-11-16T11:49:42.446Z,10.37
2023-11-16T11:52:10.849Z,10.46
2023-11-16T11:54:42.258Z,10.41
2023-11-16T11:57:11.763Z,10.33
2023-11-16T11:59:43.074Z,10.30
2023-11-16T12:02:13.153Z,10.27
2023-11-16T12:04:41.537Z,10.23
2023-11-16T12:07:11.476Z,10.27
2023-11-16T12:09:52.582Z,10.39
2023-11-16T12:12:21.092Z,10.59
2023-11-16T12:14:49.846Z,10.74
2023-11-16T12:17:22.338Z,10.81
2023-11-16T12:19:51.092Z,10.84
2023-11-16T12:22:21.858Z,10.94
2023-11-16T12:24:52.498Z,11.01
2023-11-16T12:27:22.400Z,11.00
2023-11-16T12:29:59.373Z,11.04
2023-11-16T12:32:28.020Z,10.89
2023-11-16T12:34:56.244Z,10.74
2023-11-16T12:37:24.469Z,10.60
2023-11-16T12:39:52.814Z,10.39
2023-11-16T12:42:24.605Z,10.22
2023-11-16T12:44:53.973Z,10.11
2023-11-16T12:47:23.654Z,9.98
2023-11-16T12:49:55.694Z,9.80
2023-11-16T12:52:23.855Z,9.67
2023-11-16T12:54:55.216Z,9.58
2023-11-16T12:57:24.115Z,9.50
2023-11-16T12:59:54.339Z,9.45
2023-11-16T13:02:22.607Z,9.46
2023-11-16T13:04:51.092Z,9.58
2023-11-16T13:07:19.223Z,9.77
2023-11-16T13:09:48.475Z,9.90
2023-11-16T13:12:22.336Z,10.02
2023-11-16T13:14:51.740Z,10.18
2023-11-16T13:17:20.039Z,10.30
2023-11-16T13:19:48.910Z,10.36
2023-11-16T13:22:16.885Z,10.37
2023-11-16T13:24:45.767Z,10.35
2023-11-16T13:27:13.856Z,10.25
2023-11-16T13:29:44.381Z,10.09
2023-11-16T13:32:13.933Z,9.96
2023-11-16T13:34:43.588Z,9.88
2023-11-16T13:37:11.693Z,9.79
2023-11-16T13:39:41.248Z,9.70
2023-11-16T13:42:09.973Z,9.63
2023-11-16T13:44:38.230Z,9.54
2023-11-16T13:47:06.424Z,9.42
2023-11-16T13:49:35.084Z,9.31
2023-11-16T13:52:05.036Z,9.22
2023-11-16T13:54:34.980Z,9.16
2023-11-16T13:57:02.940Z,9.08
2023-11-16T13:59:31.908Z,9.00
2023-11-16T14:02:03.006Z,8.95
2023-11-16T14:04:32.261Z,8.93
2023-11-16T14:07:00.664Z,8.91
2023-11-16T14:09:28.628Z,8.88
2023-11-16T14:11:56.772Z,8.84
2023-11-16T14:14:25.558Z,8.80
2023-11-16T14:16:53.613Z,8.78
2023-11-16T14:19:25.468Z,8.78
2023-11-16T14:21:56.810Z,8.78
2023-11-16T14:24:31.422Z,8.78
2023-11-16T14:27:09.426Z,8.77
2023-11-16T14:29:41.102Z,8.74
2023-11-16T14:32:09.609Z,8.72
2023-11-16T14:34:37.652Z,8.71
2023-11-16T14:37:08.133Z,8.69
2023-11-16T14:39:36.095Z,8.67
2023-11-16T14:42:04.208Z,8.63
2023-11-16T14:44:33.155Z,8.59
2023-11-16T14:47:02.934Z,8.56
2023-11-16T14:49:37.503Z,8.54
2023-11-16T14:52:06.375Z,8.54
2023-11-16T14:54:34.854Z,8.55
2023-11-16T14:57:03.452Z,8.53
2023-11-16T14:59:34.853Z,8.49
2023-11-16T15:02:02.722Z,8.46
2023-11-16T15:04:30.883Z,8.46
2023-11-16T15:07:02.613Z,8.44
2023-11-16T15:09:32.076Z,8.44
2023-11-16T15:12:02.392Z,8.44
2023-11-16T15:14:35.377Z,8.49
2023-11-16T15:17:03.329Z,8.53
2023-11-16T15:19:36.217Z,8.53
2023-11-16T15:22:04.548Z,8.50
2023-11-16T15:24:32.642Z,8.46
2023-11-16T15:27:00.738Z,8.41
2023-11-16T15:29:32.886Z,8.42
2023-11-16T15:32:01.257Z,8.47
2023-11-16T15:34:32.566Z,8.47
2023-11-16T15:37:00.537Z,8.45
2023-11-16T15:39:31.733Z,8.42
2023-11-16T15:42:01.908Z,8.43
2023-11-16T15:44:29.872Z,8.44
2023-11-16T15:46:59.006Z,8.43
2023-11-16T15:49:28.458Z,8.41
2023-11-16T15:51:59.000Z,8.41
2023-11-16T15:54:27.675Z,8.37
2023-11-16T15:56:55.700Z,8.29
2023-11-16T15:59:26.145Z,8.23
2023-11-16T16:01:54.178Z,8.18
2023-11-16T16:04:24.872Z,8.13
2023-11-16T16:06:53.010Z,8.08
2023-11-16T16:09:21.081Z,8.02
2023-11-16T16:11:51.675Z,7.98
2023-11-16T16:14:19.603Z,7.94
2023-11-16T16:16:53.128Z,7.90
2023-11-16T16:19:21.169Z,7.83
2023-11-16T16:21:49.526Z,7.77
2023-11-16T16:24:17.488Z,7.71
2023-11-16T16:26:46.216Z,7.67
2023-11-16T16:29:14.857Z,7.65
2023-11-16T16:31:44.607Z,7.63
2023-11-16T16:34:17.409Z,7.62
2023-11-16T16:36:45.512Z,7.61
2023-11-16T16:39:16.446Z,7.58
2023-11-16T16:41:45.064Z,7.54
2023-11-16T16:44:13.357Z,7.48
2023-11-16T16:46:46.512Z,7.45
2023-11-16T16:49:17.948Z,7.43
2023-11-16T16:51:46.664Z,7.40
2023-11-16T16:54:15.447Z,7.37
2023-11-16T16:56:46.839Z,7.35
2023-11-16T16:59:16.105Z,7.35
2023-11-16T17:01:44.364Z,7.33
2023-11-16T17:04:12.306Z,7.31
2023-11-16T17:06:40.370Z,7.28
2023-11-16T17:09:09.520Z,7.27
2023-11-16T17:11:37.771Z,7.26
2023-11-16T17:14:07.806Z,7.24
2023-11-16T17:16:36.438Z,7.23
2023-11-16T17:19:04.765Z,7.23
2023-11-16T17:21:33.426Z,7.22
2023-11-16T17:24:02.520Z,7.19
2023-11-16T17:26:30.636Z,7.18
2023-11-16T17:28:59.838Z,7.15
2023-11-16T17:31:28.923Z,7.11
2023-11-16T17:33:56.903Z,7.07
2023-11-16T17:36:25.182Z,7.04
2023-11-16T17:38:54.915Z,7.02
2023-11-16T17:41:24.580Z,6.99
2023-11-16T17:43:55.571Z,6.94
2023-11-16T17:46:23.915Z,6.85
2023-11-16T17:48:53.016Z,6.79
2023-11-16T17:51:24.143Z,6.73
2023-11-16T17:53:52.172Z,6.65
2023-11-16T17:56:20.235Z,6.58
2023-11-16T17:58:48.975Z,6.53
2023-11-16T18:01:17.119Z,6.53
2023-11-16T18:03:45.384Z,6.50
2023-11-16T18:06:13.480Z,6.45
2023-11-16T18:08:45.096Z,6.41
2023-11-16T18:11:13.066Z,6.41
2023-11-16T18:13:41.914Z,6.39
2023-11-16T18:16:10.225Z,6.33
2023-11-16T18:18:42.096Z,6.26
2023-11-16T18:21:10.176Z,6.19
2023-11-16T18:23:38.166Z,6.11
2023-11-16T18:26:06.811Z,6.08
2023-11-16T18:28:35.443Z,6.08
2023-11-16T18:31:03.566Z,6.09
2023-11-16T18:33:31.990Z,6.10
2023-11-16T18:36:03.286Z,6.11
2023-11-16T18:38:31.324Z,6.13
2023-11-16T18:41:00.286Z,6.15
2023-11-16T18:43:34.501Z,6.16
2023-11-16T18:46:07.328Z,6.17
2023-11-16T18:48:36.441Z,6.18
2023-11-16T18:51:07.901Z,6.20
2023-11-16T18:53:38.593Z,6.21
2023-11-16T18:56:11.780Z,6.23
2023-11-16T18:58:40.546Z,6.24
2023-11-16T19:01:10.293Z,6.24
2023-11-16T19:03:38.352Z,6.24
2023-11-16T19:06:10.037Z,6.25
2023-11-16T19:08:39.264Z,6.24
2023-11-16T19:11:07.173Z,6.24
2023-11-16T19:13:41.184Z,6.23
2023-11-16T19:16:12.032Z,6.22
2023-11-16T19:18:43.252Z,6.21
2023-11-16T19:21:17.258Z,6.20
2023-11-16T19:23:48.217Z,6.20
2023-11-16T19:26:16.377Z,6.20
2023-11-16T19:28:44.485Z,6.22
2023-11-16T19:31:12.649Z,6.25
2023-11-16T19:33:43.804Z,6.27
2023-11-16T19:36:15.335Z,6.31
2023-11-16T19:38:45.952Z,6.35
2023-11-16T19:41:16.945Z,6.41
2023-11-16T19:43:45.002Z,6.48
2023-11-16T19:46:16.956Z,6.53
2023-11-16T19:48:45.662Z,6.58
2023-11-16T19:51:13.745Z,6.62
2023-11-16T19:53:42.953Z,6.65
2023-11-16T19:56:11.420Z,6.68
2023-11-16T19:58:39.302Z,6.66
2023-11-16T20:01:09.337Z,6.66
2023-11-16T20:03:37.807Z,6.64
2023-11-16T20:06:07.236Z,6.60
2023-11-16T20:08:35.209Z,6.56
2023-11-16T20:11:07.851Z,6.48
2023-11-16T20:13:36.317Z,6.41
2023-11-16T20:16:06.502Z,6.33
2023-11-16T20:18:36.974Z,6.27
2023-11-16T20:21:05.508Z,6.21
2023-11-16T20:23:35.752Z,6.16
2023-11-16T20:26:05.188Z,6.13
2023-11-16T20:28:34.161Z,6.09
2023-11-16T20:31:05.037Z,6.08
2023-11-16T20:33:34.163Z,6.04
2023-11-16T20:36:02.407Z,5.97
2023-11-16T20:38:30.940Z,5.90
2023-11-16T20:40:59.055Z,5.87
2023-11-16T20:43:27.126Z,5.87
2023-11-16T20:45:55.233Z,5.87
2023-11-16T20:48:23.462Z,5.88
2023-11-16T20:50:54.066Z,5.87
2023-11-16T20:53:22.395Z,5.87
2023-11-16T20:55:50.828Z,5.86
2023-11-16T20:58:19.611Z,5.86
2023-11-16T21:00:47.699Z,5.86
2023-11-16T21:03:17.060Z,5.88
2023-11-16T21:05:45.388Z,5.89
2023-11-16T21:08:13.452Z,5.91
2023-11-16T21:10:41.717Z,5.92
2023-11-16T21:13:10.092Z,5.93
2023-11-16T21:15:38.400Z,5.92
2023-11-16T21:18:07.007Z,5.91
2023-11-16T21:20:35.209Z,5.91
2023-11-16T21:23:03.158Z,5.89
2023-11-16T21:25:31.091Z,5.86
2023-11-16T21:27:59.277Z,5.85
2023-11-16T21:30:29.516Z,5.84
2023-11-16T21:33:00.693Z,5.83
2023-11-16T21:35:29.851Z,5.82
2023-11-16T21:37:58.011Z,5.81
2023-11-16T21:40:26.819Z,5.80
2023-11-16T21:42:54.803Z,5.79
2023-11-16T21:45:22.952Z,5.79
2023-11-16T21:47:53.647Z,5.79
2023-11-16T21:50:23.000Z,5.78
2023-11-16T21:52:51.404Z,5.78
2023-11-16T21:55:20.041Z,5.79
2023-11-16T21:57:48.258Z,5.80
2023-11-16T22:00:18.984Z,5.82
2023-11-16T22:02:47.846Z,5.84
2023-11-16T22:05:16.097Z,5.86
2023-11-16T22:07:47.290Z,5.87
2023-11-16T22:10:18.344Z,5.88
2023-11-16T22:12:48.984Z,5.89
2023-11-16T22:15:17.992Z,5.91
2023-11-16T22:17:48.499Z,5.92
2023-11-16T22:20:18.064Z,5.92
2023-11-16T22:22:47.554Z,5.92
2023-11-16T22:25:19.732Z,5.91
2023-11-16T22:27:48.910Z,5.86
2023-11-16T22:30:18.909Z,5.83
2023-11-16T22:32:47.491Z,5.81
2023-11-16T22:35:16.882Z,5.81
2023-11-16T22:37:49.294Z,5.78
2023-11-16T22:40:21.241Z,5.74
2023-11-16T22:42:50.991Z,5.72
2023-11-16T22:45:19.381Z,5.70
2023-11-16T22:47:47.653Z,5.67
2023-11-16T22:50:16.154Z,5.63
2023-11-16T22:52:45.695Z,5.60
2023-11-16T22:55:15.262Z,5.57
2023-11-16T22:57:43.474Z,5.54
2023-11-16T23:00:33.211Z,5.52
2023-11-16T23:03:03.340Z,5.51
2023-11-16T23:05:33.663Z,5.51
2023-11-16T23:08:02.230Z,5.50
2023-11-16T23:10:32.565Z,5.50
2023-11-16T23:13:04.703Z,5.49
2023-11-16T23:15:52.124Z,5.51
2023-11-16T23:18:20.633Z,5.48
2023-11-16T23:20:49.202Z,5.47
2023-11-16T23:23:17.461Z,5.48
2023-11-16T23:25:46.947Z,5.49
2023-11-16T23:28:20.076Z,5.49
2023-11-16T23:30:48.585Z,5.50
2023-11-16T23:33:17.728Z,5.51
2023-11-16T23:36:26.464Z,5.52
2023-11-16T23:38:55.147Z,5.54
2023-11-16T23:41:23.780Z,5.58
2023-11-16T23:43:54.187Z,5.61
2023-11-16T23:46:23.001Z,5.63
2023-11-16T23:48:51.103Z,5.65
2023-11-16T23:51:21.890Z,5.67
2023-11-16T23:53:50.373Z,5.68
2023-11-16T23:56:18.636Z,5.69
2023-11-16T23:58:47.293Z,5.71
